sensor_id;sensor_type;location;lat;lon;timestamp;temperature;humidity
6581;DHT22;3324;50.796;7.228;2022-12-07T00:01:06;6.10;99.90
6581;DHT22;3324;50.796;7.228;2022-12-07T00:03:33;6.10;99.90
6581;DHT22;3324;50.796;7.228;2022-12-07T00:05:59;6.10;99.90
6581;DHT22;3324;50.796;7.228;2022-12-07T00:08:25;6.20;99.90
6581;DHT22;3324;50.796;7.228;2022-12-07T00:10:50;6.20;99.90
6581;DHT22;3324;50.796;7.228;2022-12-07T00:13:16;6.20;99.90
6581;DHT22;3324;50.796;7.228;2022-12-07T00:15:42;6.20;99.90
6581;DHT22;3324;50.796;7.228;2022-12-07T00:18:07;6.20;99.90
6581;DHT22;3324;50.796;7.228;2022-12-07T00:20:33;6.10;99.90
6581;DHT22;3324;50.796;7.228;2022-12-07T00:22:59;6.10;99.90
6581;DHT22;3324;50.796;7.228;2022-12-07T00:25:25;6.20;99.90
6581;DHT22;3324;50.796;7.228;2022-12-07T00:27:52;6.20;99.90
6581;DHT22;3324;50.796;7.228;2022-12-07T00:30:18;6.10;99.90
6581;DHT22;3324;50.796;7.228;2022-12-07T00:32:43;6.10;99.90
6581;DHT22;3324;50.796;7.228;2022-12-07T00:35:09;6.20;99.90
6581;DHT22;3324;50.796;7.228;2022-12-07T00:37:34;6.20;99.90
6581;DHT22;3324;50.796;7.228;2022-12-07T00:40:00;6.10;99.90
6581;DHT22;3324;50.796;7.228;2022-12-07T00:42:25;6.20;99.90
6581;DHT22;3324;50.796;7.228;2022-12-07T00:44:51;6.10;99.90
6581;DHT22;3324;50.796;7.228;2022-12-07T00:47:16;6.20;99.90
6581;DHT22;3324;50.796;7.228;2022-12-07T00:49:42;6.20;99.90
6581;DHT22;3324;50.796;7.228;2022-12-07T00:52:07;6.20;99.90
6581;DHT22;3324;50.796;7.228;2022-12-07T00:54:33;6.10;99.90
6581;DHT22;3324;50.796;7.228;2022-12-07T00:56:59;6.20;99.90
6581;DHT22;3324;50.796;7.228;2022-12-07T00:59:24;6.10;99.90
6581;DHT22;3324;50.796;7.228;2022-12-07T01:01:50;6.20;99.90
6581;DHT22;3324;50.796;7.228;2022-12-07T01:04:15;6.10;99.90
6581;DHT22;3324;50.796;7.228;2022-12-07T01:06:41;6.10;99.90
6581;DHT22;3324;50.796;7.228;2022-12-07T01:09:06;6.10;99.90
6581;DHT22;3324;50.796;7.228;2022-12-07T01:11:32;6.10;99.90
6581;DHT22;3324;50.796;7.228;2022-12-07T01:13:59;6.10;99.90
6581;DHT22;3324;50.796;7.228;2022-12-07T01:16:27;6.10;99.90
6581;DHT22;3324;50.796;7.228;2022-12-07T01:18:55;6.10;99.90
6581;DHT22;3324;50.796;7.228;2022-12-07T01:21:23;6.20;99.90
6581;DHT22;3324;50.796;7.228;2022-12-07T01:23:49;6.10;99.90
6581;DHT22;3324;50.796;7.228;2022-12-07T01:26:17;6.10;99.90
6581;DHT22;3324;50.796;7.228;2022-12-07T01:28:43;6.20;99.90
6581;DHT22;3324;50.796;7.228;2022-12-07T01:31:14;6.20;99.90
6581;DHT22;3324;50.796;7.228;2022-12-07T01:33:49;6.20;99.90
6581;DHT22;3324;50.796;7.228;2022-12-07T01:36:19;6.30;99.90
6581;DHT22;3324;50.796;7.228;2022-12-07T01:38:45;6.30;99.90
6581;DHT22;3324;50.796;7.228;2022-12-07T01:41:11;6.30;99.90
6581;DHT22;3324;50.796;7.228;2022-12-07T01:44:08;6.30;99.90
6581;DHT22;3324;50.796;7.228;2022-12-07T01:46:34;6.30;99.90
6581;DHT22;3324;50.796;7.228;2022-12-07T01:49:00;6.30;99.90
6581;DHT22;3324;50.796;7.228;2022-12-07T01:51:26;6.20;99.90
6581;DHT22;3324;50.796;7.228;2022-12-07T01:53:53;6.20;99.90
6581;DHT22;3324;50.796;7.228;2022-12-07T01:56:20;6.20;99.90
6581;DHT22;3324;50.796;7.228;2022-12-07T01:58:50;6.30;99.90
6581;DHT22;3324;50.796;7.228;2022-12-07T02:01:17;6.30;99.90
6581;DHT22;3324;50.796;7.228;2022-12-07T02:03:44;6.30;99.90
6581;DHT22;3324;50.796;7.228;2022-12-07T02:06:12;6.30;99.90
6581;DHT22;3324;50.796;7.228;2022-12-07T02:08:41;6.40;99.90
6581;DHT22;3324;50.796;7.228;2022-12-07T02:11:08;6.40;99.90
6581;DHT22;3324;50.796;7.228;2022-12-07T02:13:36;6.40;99.90
6581;DHT22;3324;50.796;7.228;2022-12-07T02:27:14;6.30;99.90
6581;DHT22;3324;50.796;7.228;2022-12-07T02:29:58;6.30;99.90
6581;DHT22;3324;50.796;7.228;2022-12-07T02:37:51;6.30;99.90
6581;DHT22;3324;50.796;7.228;2022-12-07T02:40:36;6.40;99.90
6581;DHT22;3324;50.796;7.228;2022-12-07T02:45:41;6.30;99.90
6581;DHT22;3324;50.796;7.228;2022-12-07T02:48:08;6.30;99.90
6581;DHT22;3324;50.796;7.228;2022-12-07T02:50:35;6.30;99.90
6581;DHT22;3324;50.796;7.228;2022-12-07T02:53:01;6.40;99.90
6581;DHT22;3324;50.796;7.228;2022-12-07T02:55:34;6.40;99.90
6581;DHT22;3324;50.796;7.228;2022-12-07T02:58:14;6.40;99.90
6581;DHT22;3324;50.796;7.228;2022-12-07T03:01:31;6.40;99.90
6581;DHT22;3324;50.796;7.228;2022-12-07T03:06:56;6.40;99.90
6581;DHT22;3324;50.796;7.228;2022-12-07T03:09:39;6.50;99.90
6581;DHT22;3324;50.796;7.228;2022-12-07T03:12:09;6.40;99.90
6581;DHT22;3324;50.796;7.228;2022-12-07T03:14:41;6.50;99.90
6581;DHT22;3324;50.796;7.228;2022-12-07T03:17:16;6.40;99.90
6581;DHT22;3324;50.796;7.228;2022-12-07T03:19:45;6.40;99.90
6581;DHT22;3324;50.796;7.228;2022-12-07T03:22:12;6.40;99.90
6581;DHT22;3324;50.796;7.228;2022-12-07T03:24:45;6.40;99.90
6581;DHT22;3324;50.796;7.228;2022-12-07T03:27:27;6.40;99.90
6581;DHT22;3324;50.796;7.228;2022-12-07T03:32:32;6.40;99.90
6581;DHT22;3324;50.796;7.228;2022-12-07T03:35:05;6.40;99.90
6581;DHT22;3324;50.796;7.228;2022-12-07T03:40:58;6.40;99.90
6581;DHT22;3324;50.796;7.228;2022-12-07T03:43:25;6.40;99.90
6581;DHT22;3324;50.796;7.228;2022-12-07T03:48:37;6.40;99.90
6581;DHT22;3324;50.796;7.228;2022-12-07T03:51:20;6.40;99.90
6581;DHT22;3324;50.796;7.228;2022-12-07T03:54:18;6.40;99.90
6581;DHT22;3324;50.796;7.228;2022-12-07T03:56:45;6.40;99.90
6581;DHT22;3324;50.796;7.228;2022-12-07T03:59:13;6.40;99.90
6581;DHT22;3324;50.796;7.228;2022-12-07T04:01:42;6.40;99.90
6581;DHT22;3324;50.796;7.228;2022-12-07T04:04:08;6.40;99.90
6581;DHT22;3324;50.796;7.228;2022-12-07T04:06:33;6.50;99.90
6581;DHT22;3324;50.796;7.228;2022-12-07T04:08:59;6.50;99.90
6581;DHT22;3324;50.796;7.228;2022-12-07T04:11:24;6.50;99.90
6581;DHT22;3324;50.796;7.228;2022-12-07T04:13:50;6.50;99.90
6581;DHT22;3324;50.796;7.228;2022-12-07T04:16:34;6.50;99.90
6581;DHT22;3324;50.796;7.228;2022-12-07T04:19:00;6.50;99.90
6581;DHT22;3324;50.796;7.228;2022-12-07T04:21:25;6.50;99.90
6581;DHT22;3324;50.796;7.228;2022-12-07T04:23:51;6.50;99.90
6581;DHT22;3324;50.796;7.228;2022-12-07T04:26:16;6.50;99.90
6581;DHT22;3324;50.796;7.228;2022-12-07T04:28:42;6.50;99.90
6581;DHT22;3324;50.796;7.228;2022-12-07T04:31:07;6.50;99.90
6581;DHT22;3324;50.796;7.228;2022-12-07T04:33:33;6.50;99.90
6581;DHT22;3324;50.796;7.228;2022-12-07T04:36:00;6.50;99.90
6581;DHT22;3324;50.796;7.228;2022-12-07T04:38:25;6.50;99.90
6581;DHT22;3324;50.796;7.228;2022-12-07T04:40:51;6.50;99.90
6581;DHT22;3324;50.796;7.228;2022-12-07T04:43:16;6.50;99.90
6581;DHT22;3324;50.796;7.228;2022-12-07T04:45:49;6.50;99.90
6581;DHT22;3324;50.796;7.228;2022-12-07T04:48:16;6.50;99.90
6581;DHT22;3324;50.796;7.228;2022-12-07T04:50:42;6.60;99.90
6581;DHT22;3324;50.796;7.228;2022-12-07T04:53:07;6.50;99.90
6581;DHT22;3324;50.796;7.228;2022-12-07T04:55:33;6.60;99.90
6581;DHT22;3324;50.796;7.228;2022-12-07T04:57:58;6.60;99.90
6581;DHT22;3324;50.796;7.228;2022-12-07T05:00:24;6.50;99.90
6581;DHT22;3324;50.796;7.228;2022-12-07T05:02:49;6.50;99.90
6581;DHT22;3324;50.796;7.228;2022-12-07T05:05:15;6.50;99.90
6581;DHT22;3324;50.796;7.228;2022-12-07T05:07:40;6.50;99.90
6581;DHT22;3324;50.796;7.228;2022-12-07T05:10:07;6.50;99.90
6581;DHT22;3324;50.796;7.228;2022-12-07T05:12:32;6.50;99.90
6581;DHT22;3324;50.796;7.228;2022-12-07T05:14:58;6.50;99.90
6581;DHT22;3324;50.796;7.228;2022-12-07T05:17:23;6.50;99.90
6581;DHT22;3324;50.796;7.228;2022-12-07T05:19:49;6.50;99.90
6581;DHT22;3324;50.796;7.228;2022-12-07T05:22:15;6.50;99.90
6581;DHT22;3324;50.796;7.228;2022-12-07T05:24:40;6.50;99.90
6581;DHT22;3324;50.796;7.228;2022-12-07T05:27:06;6.50;99.90
6581;DHT22;3324;50.796;7.228;2022-12-07T05:29:31;6.50;99.90
6581;DHT22;3324;50.796;7.228;2022-12-07T05:31:57;6.50;99.90
6581;DHT22;3324;50.796;7.228;2022-12-07T05:34:23;6.50;99.90
6581;DHT22;3324;50.796;7.228;2022-12-07T05:36:48;6.60;99.90
6581;DHT22;3324;50.796;7.228;2022-12-07T05:39:15;6.60;99.90
6581;DHT22;3324;50.796;7.228;2022-12-07T05:41:41;6.50;99.90
6581;DHT22;3324;50.796;7.228;2022-12-07T05:44:25;6.60;99.90
6581;DHT22;3324;50.796;7.228;2022-12-07T05:46:51;6.60;99.90
6581;DHT22;3324;50.796;7.228;2022-12-07T05:49:16;6.60;99.90
6581;DHT22;3324;50.796;7.228;2022-12-07T05:51:42;6.50;99.90
6581;DHT22;3324;50.796;7.228;2022-12-07T05:54:08;6.50;99.90
6581;DHT22;3324;50.796;7.228;2022-12-07T05:56:33;6.50;99.90
6581;DHT22;3324;50.796;7.228;2022-12-07T05:58:59;6.50;99.90
6581;DHT22;3324;50.796;7.228;2022-12-07T06:01:43;6.50;99.90
6581;DHT22;3324;50.796;7.228;2022-12-07T06:04:08;6.50;99.90
6581;DHT22;3324;50.796;7.228;2022-12-07T06:06:34;6.50;99.90
6581;DHT22;3324;50.796;7.228;2022-12-07T06:09:00;6.50;99.90
6581;DHT22;3324;50.796;7.228;2022-12-07T06:11:25;6.50;99.90
6581;DHT22;3324;50.796;7.228;2022-12-07T06:14:10;6.50;99.90
6581;DHT22;3324;50.796;7.228;2022-12-07T06:16:35;6.50;99.90
6581;DHT22;3324;50.796;7.228;2022-12-07T06:19:01;6.50;99.90
6581;DHT22;3324;50.796;7.228;2022-12-07T06:21:26;6.60;99.90
6581;DHT22;3324;50.796;7.228;2022-12-07T06:23:53;6.50;99.90
6581;DHT22;3324;50.796;7.228;2022-12-07T06:26:18;6.40;99.90
6581;DHT22;3324;50.796;7.228;2022-12-07T06:28:44;6.50;99.90
6581;DHT22;3324;50.796;7.228;2022-12-07T06:31:09;6.50;99.90
6581;DHT22;3324;50.796;7.228;2022-12-07T06:33:35;6.50;99.90
6581;DHT22;3324;50.796;7.228;2022-12-07T06:36:01;6.50;99.90
6581;DHT22;3324;50.796;7.228;2022-12-07T06:38:26;6.40;99.90
6581;DHT22;3324;50.796;7.228;2022-12-07T06:40:52;6.40;99.90
6581;DHT22;3324;50.796;7.228;2022-12-07T06:43:17;6.30;99.90
6581;DHT22;3324;50.796;7.228;2022-12-07T06:45:43;6.30;99.90
6581;DHT22;3324;50.796;7.228;2022-12-07T06:48:09;6.30;99.90
6581;DHT22;3324;50.796;7.228;2022-12-07T06:50:34;6.40;99.90
6581;DHT22;3324;50.796;7.228;2022-12-07T06:53:00;6.40;99.90
6581;DHT22;3324;50.796;7.228;2022-12-07T06:55:25;6.40;99.90
6581;DHT22;3324;50.796;7.228;2022-12-07T06:57:51;6.40;99.90
6581;DHT22;3324;50.796;7.228;2022-12-07T07:00:17;6.40;99.90
6581;DHT22;3324;50.796;7.228;2022-12-07T07:02:42;6.30;99.90
6581;DHT22;3324;50.796;7.228;2022-12-07T07:05:08;6.30;99.90
6581;DHT22;3324;50.796;7.228;2022-12-07T07:07:34;6.30;99.90
6581;DHT22;3324;50.796;7.228;2022-12-07T07:09:59;6.40;99.90
6581;DHT22;3324;50.796;7.228;2022-12-07T07:12:25;6.30;99.90
6581;DHT22;3324;50.796;7.228;2022-12-07T07:14:51;6.30;99.90
6581;DHT22;3324;50.796;7.228;2022-12-07T07:17:16;6.30;99.90
6581;DHT22;3324;50.796;7.228;2022-12-07T07:19:42;6.40;99.90
6581;DHT22;3324;50.796;7.228;2022-12-07T07:22:07;6.40;99.90
6581;DHT22;3324;50.796;7.228;2022-12-07T07:24:33;6.30;99.90
6581;DHT22;3324;50.796;7.228;2022-12-07T07:26:58;6.40;99.90
6581;DHT22;3324;50.796;7.228;2022-12-07T07:29:24;6.40;99.90
6581;DHT22;3324;50.796;7.228;2022-12-07T07:31:50;6.30;99.90
6581;DHT22;3324;50.796;7.228;2022-12-07T07:34:15;6.30;99.90
6581;DHT22;3324;50.796;7.228;2022-12-07T07:36:41;6.40;99.90
6581;DHT22;3324;50.796;7.228;2022-12-07T07:39:06;6.40;99.90
6581;DHT22;3324;50.796;7.228;2022-12-07T07:41:32;6.40;99.90
6581;DHT22;3324;50.796;7.228;2022-12-07T07:43:58;6.40;99.90
6581;DHT22;3324;50.796;7.228;2022-12-07T07:46:23;6.30;99.90
6581;DHT22;3324;50.796;7.228;2022-12-07T07:48:49;6.30;99.90
6581;DHT22;3324;50.796;7.228;2022-12-07T07:51:14;6.30;99.90
6581;DHT22;3324;50.796;7.228;2022-12-07T07:53:40;6.30;99.90
6581;DHT22;3324;50.796;7.228;2022-12-07T07:56:05;6.40;99.90
6581;DHT22;3324;50.796;7.228;2022-12-07T07:58:31;6.50;99.90
6581;DHT22;3324;50.796;7.228;2022-12-07T08:00:57;6.40;99.90
6581;DHT22;3324;50.796;7.228;2022-12-07T08:03:22;6.40;99.90
6581;DHT22;3324;50.796;7.228;2022-12-07T08:05:48;6.40;99.90
6581;DHT22;3324;50.796;7.228;2022-12-07T08:08:13;6.40;99.90
6581;DHT22;3324;50.796;7.228;2022-12-07T08:10:41;6.50;99.90
6581;DHT22;3324;50.796;7.228;2022-12-07T08:13:06;6.50;99.90
6581;DHT22;3324;50.796;7.228;2022-12-07T08:15:43;6.40;99.90
6581;DHT22;3324;50.796;7.228;2022-12-07T08:18:09;6.40;99.90
6581;DHT22;3324;50.796;7.228;2022-12-07T08:20:35;6.50;99.90
6581;DHT22;3324;50.796;7.228;2022-12-07T08:23:01;6.50;99.90
6581;DHT22;3324;50.796;7.228;2022-12-07T08:25:27;6.60;99.90
6581;DHT22;3324;50.796;7.228;2022-12-07T08:27:53;6.60;99.90
6581;DHT22;3324;50.796;7.228;2022-12-07T08:30:20;6.60;99.90
6581;DHT22;3324;50.796;7.228;2022-12-07T08:32:46;6.50;99.90
6581;DHT22;3324;50.796;7.228;2022-12-07T08:35:12;6.60;99.90
6581;DHT22;3324;50.796;7.228;2022-12-07T08:37:38;6.50;99.90
6581;DHT22;3324;50.796;7.228;2022-12-07T08:40:05;6.60;99.90
6581;DHT22;3324;50.796;7.228;2022-12-07T08:42:31;6.60;99.90
6581;DHT22;3324;50.796;7.228;2022-12-07T08:45:11;6.70;99.90
6581;DHT22;3324;50.796;7.228;2022-12-07T08:47:40;6.60;99.90
6581;DHT22;3324;50.796;7.228;2022-12-07T08:50:08;6.60;99.90
6581;DHT22;3324;50.796;7.228;2022-12-07T08:52:35;6.50;99.90
6581;DHT22;3324;50.796;7.228;2022-12-07T08:55:03;6.50;99.90
6581;DHT22;3324;50.796;7.228;2022-12-07T08:57:30;6.50;99.90
6581;DHT22;3324;50.796;7.228;2022-12-07T08:59:56;6.50;99.90
6581;DHT22;3324;50.796;7.228;2022-12-07T09:02:23;6.60;99.90
6581;DHT22;3324;50.796;7.228;2022-12-07T09:04:49;6.60;99.90
6581;DHT22;3324;50.796;7.228;2022-12-07T09:07:14;6.60;99.90
6581;DHT22;3324;50.796;7.228;2022-12-07T09:09:40;6.60;99.90
6581;DHT22;3324;50.796;7.228;2022-12-07T09:12:06;6.60;99.90
6581;DHT22;3324;50.796;7.228;2022-12-07T09:14:31;6.60;99.90
6581;DHT22;3324;50.796;7.228;2022-12-07T09:17:09;6.60;99.90
6581;DHT22;3324;50.796;7.228;2022-12-07T09:19:35;6.60;99.90
6581;DHT22;3324;50.796;7.228;2022-12-07T09:22:01;6.70;99.90
6581;DHT22;3324;50.796;7.228;2022-12-07T09:24:26;6.70;99.90
6581;DHT22;3324;50.796;7.228;2022-12-07T09:26:52;6.70;99.90
6581;DHT22;3324;50.796;7.228;2022-12-07T09:29:17;6.70;99.90
6581;DHT22;3324;50.796;7.228;2022-12-07T09:31:43;6.70;99.90
6581;DHT22;3324;50.796;7.228;2022-12-07T09:34:08;6.70;99.90
6581;DHT22;3324;50.796;7.228;2022-12-07T09:36:34;7.40;99.90
6581;DHT22;3324;50.796;7.228;2022-12-07T09:39:00;8.10;99.90
6581;DHT22;3324;50.796;7.228;2022-12-07T09:41:27;8.70;99.90
6581;DHT22;3324;50.796;7.228;2022-12-07T09:44:02;9.00;99.90
6581;DHT22;3324;50.796;7.228;2022-12-07T09:46:29;9.30;99.90
6581;DHT22;3324;50.796;7.228;2022-12-07T09:48:59;9.50;99.90
6581;DHT22;3324;50.796;7.228;2022-12-07T09:51:24;9.70;99.90
6581;DHT22;3324;50.796;7.228;2022-12-07T09:53:54;9.50;99.90
6581;DHT22;3324;50.796;7.228;2022-12-07T09:56:23;9.20;99.90
6581;DHT22;3324;50.796;7.228;2022-12-07T09:58:49;8.80;99.90
6581;DHT22;3324;50.796;7.228;2022-12-07T10:01:19;8.50;99.90
6581;DHT22;3324;50.796;7.228;2022-12-07T10:03:54;8.20;99.90
6581;DHT22;3324;50.796;7.228;2022-12-07T10:06:20;8.00;99.90
6581;DHT22;3324;50.796;7.228;2022-12-07T10:08:46;7.90;99.90
6581;DHT22;3324;50.796;7.228;2022-12-07T10:11:12;7.80;99.90
6581;DHT22;3324;50.796;7.228;2022-12-07T10:13:52;7.70;99.90
6581;DHT22;3324;50.796;7.228;2022-12-07T10:18:51;7.50;99.90
6581;DHT22;3324;50.796;7.228;2022-12-07T10:21:22;7.60;99.90
6581;DHT22;3324;50.796;7.228;2022-12-07T10:24:04;7.50;99.90
6581;DHT22;3324;50.796;7.228;2022-12-07T10:29:12;7.40;99.90
6581;DHT22;3324;50.796;7.228;2022-12-07T10:31:40;7.40;99.90
6581;DHT22;3324;50.796;7.228;2022-12-07T10:34:23;7.50;99.90
6581;DHT22;3324;50.796;7.228;2022-12-07T10:36:52;7.50;99.90
6581;DHT22;3324;50.796;7.228;2022-12-07T10:39:21;7.50;99.90
6581;DHT22;3324;50.796;7.228;2022-12-07T10:41:59;7.40;99.90
6581;DHT22;3324;50.796;7.228;2022-12-07T10:44:30;7.30;99.90
6581;DHT22;3324;50.796;7.228;2022-12-07T10:53:19;7.50;99.90
6581;DHT22;3324;50.796;7.228;2022-12-07T10:58:47;7.50;99.90
6581;DHT22;3324;50.796;7.228;2022-12-07T11:01:20;7.40;99.90
6581;DHT22;3324;50.796;7.228;2022-12-07T11:06:51;7.40;99.90
6581;DHT22;3324;50.796;7.228;2022-12-07T11:17:52;7.40;99.90
6581;DHT22;3324;50.796;7.228;2022-12-07T11:29:33;7.50;99.90
6581;DHT22;3324;50.796;7.228;2022-12-07T11:35:08;7.60;99.90
6581;DHT22;3324;50.796;7.228;2022-12-07T11:37:37;7.70;99.90
6581;DHT22;3324;50.796;7.228;2022-12-07T11:40:27;7.60;99.90
6581;DHT22;3324;50.796;7.228;2022-12-07T11:43:24;7.70;99.90
6581;DHT22;3324;50.796;7.228;2022-12-07T11:46:13;7.70;99.90
6581;DHT22;3324;50.796;7.228;2022-12-07T11:49:20;7.70;99.90
6581;DHT22;3324;50.796;7.228;2022-12-07T11:51:44;7.70;99.90
6581;DHT22;3324;50.796;7.228;2022-12-07T11:54:16;7.70;99.90
6581;DHT22;3324;50.796;7.228;2022-12-07T11:56:42;7.70;99.90
6581;DHT22;3324;50.796;7.228;2022-12-07T11:59:17;7.70;99.90
6581;DHT22;3324;50.796;7.228;2022-12-07T12:01:56;7.70;99.90
6581;DHT22;3324;50.796;7.228;2022-12-07T12:04:31;7.70;99.90
6581;DHT22;3324;50.796;7.228;2022-12-07T12:06:59;7.70;99.90
6581;DHT22;3324;50.796;7.228;2022-12-07T12:09:35;7.80;99.90
6581;DHT22;3324;50.796;7.228;2022-12-07T12:20:58;7.70;99.90
6581;DHT22;3324;50.796;7.228;2022-12-07T12:23:55;7.70;99.90
6581;DHT22;3324;50.796;7.228;2022-12-07T12:26:25;7.70;99.90
6581;DHT22;3324;50.796;7.228;2022-12-07T12:33:48;7.60;99.90
6581;DHT22;3324;50.796;7.228;2022-12-07T12:49:31;7.40;99.90
6581;DHT22;3324;50.796;7.228;2022-12-07T12:51:59;7.40;99.90
6581;DHT22;3324;50.796;7.228;2022-12-07T12:54:32;7.30;99.90
6581;DHT22;3324;50.796;7.228;2022-12-07T12:57:14;7.30;99.90
6581;DHT22;3324;50.796;7.228;2022-12-07T13:02:32;7.30;99.90
6581;DHT22;3324;50.796;7.228;2022-12-07T13:13:08;7.30;99.90
6581;DHT22;3324;50.796;7.228;2022-12-07T13:26:14;7.20;99.90
6581;DHT22;3324;50.796;7.228;2022-12-07T13:31:35;7.30;99.90
6581;DHT22;3324;50.796;7.228;2022-12-07T13:34:00;7.30;99.90
6581;DHT22;3324;50.796;7.228;2022-12-07T13:36:37;7.30;99.90
6581;DHT22;3324;50.796;7.228;2022-12-07T13:41:46;7.40;99.90
6581;DHT22;3324;50.796;7.228;2022-12-07T13:44:15;7.30;99.90
6581;DHT22;3324;50.796;7.228;2022-12-07T13:49:30;7.30;99.90
6581;DHT22;3324;50.796;7.228;2022-12-07T13:52:20;7.30;99.90
6581;DHT22;3324;50.796;7.228;2022-12-07T13:54:58;7.30;99.90
6581;DHT22;3324;50.796;7.228;2022-12-07T13:57:25;7.30;99.90
6581;DHT22;3324;50.796;7.228;2022-12-07T13:59:52;7.30;99.90
6581;DHT22;3324;50.796;7.228;2022-12-07T14:02:29;7.40;99.90
6581;DHT22;3324;50.796;7.228;2022-12-07T14:07:33;7.40;99.90
6581;DHT22;3324;50.796;7.228;2022-12-07T14:10:02;7.30;99.90
6581;DHT22;3324;50.796;7.228;2022-12-07T14:12:30;7.40;99.90
6581;DHT22;3324;50.796;7.228;2022-12-07T14:14:57;7.40;99.90
6581;DHT22;3324;50.796;7.228;2022-12-07T14:17:25;7.40;99.90
6581;DHT22;3324;50.796;7.228;2022-12-07T14:19:54;7.50;99.90
6581;DHT22;3324;50.796;7.228;2022-12-07T14:22:27;7.50;99.90
6581;DHT22;3324;50.796;7.228;2022-12-07T14:25:23;7.50;99.90
6581;DHT22;3324;50.796;7.228;2022-12-07T14:30:23;7.40;99.90
6581;DHT22;3324;50.796;7.228;2022-12-07T14:32:56;7.40;99.90
6581;DHT22;3324;50.796;7.228;2022-12-07T14:35:22;7.40;99.90
6581;DHT22;3324;50.796;7.228;2022-12-07T14:37:48;7.30;99.90
6581;DHT22;3324;50.796;7.228;2022-12-07T14:40:20;7.40;99.90
6581;DHT22;3324;50.796;7.228;2022-12-07T14:42:48;7.30;99.90
6581;DHT22;3324;50.796;7.228;2022-12-07T14:45:20;7.30;99.90
6581;DHT22;3324;50.796;7.228;2022-12-07T14:47:46;7.20;99.90
6581;DHT22;3324;50.796;7.228;2022-12-07T14:50:14;7.20;99.90
6581;DHT22;3324;50.796;7.228;2022-12-07T14:52:41;7.20;99.90
6581;DHT22;3324;50.796;7.228;2022-12-07T14:55:25;7.30;99.90
6581;DHT22;3324;50.796;7.228;2022-12-07T14:57:52;7.30;99.90
6581;DHT22;3324;50.796;7.228;2022-12-07T15:00:19;7.30;99.90
6581;DHT22;3324;50.796;7.228;2022-12-07T15:02:45;7.30;99.90
6581;DHT22;3324;50.796;7.228;2022-12-07T15:05:11;7.30;99.90
6581;DHT22;3324;50.796;7.228;2022-12-07T15:07:37;7.20;99.90
6581;DHT22;3324;50.796;7.228;2022-12-07T15:10:03;7.20;99.90
6581;DHT22;3324;50.796;7.228;2022-12-07T15:12:29;7.10;99.90
6581;DHT22;3324;50.796;7.228;2022-12-07T15:14:54;7.00;99.90
6581;DHT22;3324;50.796;7.228;2022-12-07T15:17:20;7.00;99.90
6581;DHT22;3324;50.796;7.228;2022-12-07T15:19:47;6.90;99.90
6581;DHT22;3324;50.796;7.228;2022-12-07T15:22:12;6.90;99.90
6581;DHT22;3324;50.796;7.228;2022-12-07T15:24:38;6.90;99.90
6581;DHT22;3324;50.796;7.228;2022-12-07T15:27:03;7.00;99.90
6581;DHT22;3324;50.796;7.228;2022-12-07T15:29:29;7.00;99.90
6581;DHT22;3324;50.796;7.228;2022-12-07T15:31:55;6.90;99.90
6581;DHT22;3324;50.796;7.228;2022-12-07T15:34:21;6.90;99.90
6581;DHT22;3324;50.796;7.228;2022-12-07T15:36:47;6.90;99.90
6581;DHT22;3324;50.796;7.228;2022-12-07T15:39:12;6.90;99.90
6581;DHT22;3324;50.796;7.228;2022-12-07T15:41:38;6.90;99.90
6581;DHT22;3324;50.796;7.228;2022-12-07T15:44:04;6.90;99.90
6581;DHT22;3324;50.796;7.228;2022-12-07T15:46:48;6.90;99.90
6581;DHT22;3324;50.796;7.228;2022-12-07T15:49:16;7.00;99.90
6581;DHT22;3324;50.796;7.228;2022-12-07T15:51:43;7.10;99.90
6581;DHT22;3324;50.796;7.228;2022-12-07T15:54:28;7.00;99.90
6581;DHT22;3324;50.796;7.228;2022-12-07T15:56:55;7.00;99.90
6581;DHT22;3324;50.796;7.228;2022-12-07T15:59:21;7.00;99.90
6581;DHT22;3324;50.796;7.228;2022-12-07T16:01:47;7.00;99.90
6581;DHT22;3324;50.796;7.228;2022-12-07T16:04:12;6.90;99.90
6581;DHT22;3324;50.796;7.228;2022-12-07T16:06:39;6.90;99.90
6581;DHT22;3324;50.796;7.228;2022-12-07T16:09:05;6.90;99.90
6581;DHT22;3324;50.796;7.228;2022-12-07T16:11:31;6.80;99.90
6581;DHT22;3324;50.796;7.228;2022-12-07T16:13:56;6.80;99.90
6581;DHT22;3324;50.796;7.228;2022-12-07T16:16:22;6.80;99.90
6581;DHT22;3324;50.796;7.228;2022-12-07T16:18:48;6.70;99.90
6581;DHT22;3324;50.796;7.228;2022-12-07T16:21:15;6.80;99.90
6581;DHT22;3324;50.796;7.228;2022-12-07T16:23:41;6.70;99.90
6581;DHT22;3324;50.796;7.228;2022-12-07T16:26:12;6.80;99.90
6581;DHT22;3324;50.796;7.228;2022-12-07T16:28:38;6.80;99.90
6581;DHT22;3324;50.796;7.228;2022-12-07T16:31:12;6.80;99.90
6581;DHT22;3324;50.796;7.228;2022-12-07T16:33:40;6.80;99.90
6581;DHT22;3324;50.796;7.228;2022-12-07T16:36:07;6.80;99.90
6581;DHT22;3324;50.796;7.228;2022-12-07T16:38:34;6.80;99.90
6581;DHT22;3324;50.796;7.228;2022-12-07T16:41:00;6.80;99.90
6581;DHT22;3324;50.796;7.228;2022-12-07T16:43:26;6.80;99.90
6581;DHT22;3324;50.796;7.228;2022-12-07T16:45:51;6.90;99.90
6581;DHT22;3324;50.796;7.228;2022-12-07T16:48:17;6.80;99.90
6581;DHT22;3324;50.796;7.228;2022-12-07T16:50:43;6.90;99.90
6581;DHT22;3324;50.796;7.228;2022-12-07T16:53:10;6.80;99.90
6581;DHT22;3324;50.796;7.228;2022-12-07T16:55:43;6.90;99.90
6581;DHT22;3324;50.796;7.228;2022-12-07T16:58:10;6.90;99.90
6581;DHT22;3324;50.796;7.228;2022-12-07T17:00:37;6.90;99.90
6581;DHT22;3324;50.796;7.228;2022-12-07T17:03:03;6.90;99.90
6581;DHT22;3324;50.796;7.228;2022-12-07T17:05:29;6.90;99.90
6581;DHT22;3324;50.796;7.228;2022-12-07T17:07:55;6.90;99.90
6581;DHT22;3324;50.796;7.228;2022-12-07T17:10:22;6.90;99.90
6581;DHT22;3324;50.796;7.228;2022-12-07T17:12:48;6.90;99.90
6581;DHT22;3324;50.796;7.228;2022-12-07T17:15:14;6.90;99.90
6581;DHT22;3324;50.796;7.228;2022-12-07T17:17:45;6.80;99.90
6581;DHT22;3324;50.796;7.228;2022-12-07T17:20:13;6.80;99.90
6581;DHT22;3324;50.796;7.228;2022-12-07T17:22:39;6.90;99.90
6581;DHT22;3324;50.796;7.228;2022-12-07T17:25:05;6.80;99.90
6581;DHT22;3324;50.796;7.228;2022-12-07T17:27:31;6.80;99.90
6581;DHT22;3324;50.796;7.228;2022-12-07T17:29:57;6.80;99.90
6581;DHT22;3324;50.796;7.228;2022-12-07T17:32:23;6.70;99.90
6581;DHT22;3324;50.796;7.228;2022-12-07T17:34:48;6.80;99.90
6581;DHT22;3324;50.796;7.228;2022-12-07T17:37:14;6.70;99.90
6581;DHT22;3324;50.796;7.228;2022-12-07T17:39:39;6.70;99.90
6581;DHT22;3324;50.796;7.228;2022-12-07T17:42:05;6.70;99.90
6581;DHT22;3324;50.796;7.228;2022-12-07T17:44:49;6.70;99.90
6581;DHT22;3324;50.796;7.228;2022-12-07T17:47:14;6.70;99.90
6581;DHT22;3324;50.796;7.228;2022-12-07T17:49:42;6.70;99.90
6581;DHT22;3324;50.796;7.228;2022-12-07T17:52:11;6.80;99.90
6581;DHT22;3324;50.796;7.228;2022-12-07T17:54:55;6.70;99.90
6581;DHT22;3324;50.796;7.228;2022-12-07T17:57:21;6.70;99.90
6581;DHT22;3324;50.796;7.228;2022-12-07T17:59:46;6.70;99.90
6581;DHT22;3324;50.796;7.228;2022-12-07T18:02:12;6.70;99.90
6581;DHT22;3324;50.796;7.228;2022-12-07T18:04:37;6.70;99.90
6581;DHT22;3324;50.796;7.228;2022-12-07T18:07:04;6.70;99.90
6581;DHT22;3324;50.796;7.228;2022-12-07T18:09:31;6.70;99.90
6581;DHT22;3324;50.796;7.228;2022-12-07T18:11:56;6.70;99.90
6581;DHT22;3324;50.796;7.228;2022-12-07T18:14:22;6.70;99.90
6581;DHT22;3324;50.796;7.228;2022-12-07T18:16:48;6.70;99.90
6581;DHT22;3324;50.796;7.228;2022-12-07T18:19:14;6.70;99.90
6581;DHT22;3324;50.796;7.228;2022-12-07T18:21:42;6.70;99.90
6581;DHT22;3324;50.796;7.228;2022-12-07T18:24:10;6.70;99.90
6581;DHT22;3324;50.796;7.228;2022-12-07T18:26:37;6.70;99.90
6581;DHT22;3324;50.796;7.228;2022-12-07T18:29:04;6.60;99.90
6581;DHT22;3324;50.796;7.228;2022-12-07T18:31:30;6.70;99.90
6581;DHT22;3324;50.796;7.228;2022-12-07T18:34:00;6.60;99.90
6581;DHT22;3324;50.796;7.228;2022-12-07T18:36:25;6.60;99.90